Time;durP1;ratioP1;P1;durP2;ratioP2;P2;SDS_P1;SDS_P2;PMS_P1;PMS_P2;Temp;Humidity;BMP_temperature;BMP_pressure;BME280_temperature;BME280_humidity;BME280_pressure;Samples;Min_cycle;Max_cycle;Signal;HPM_P1;HPM_P2
2022/03/29 00:01:17;;;;;;;5.43;3.47;;;;;;;7.73;68.35;99138.50;8211684;28;20059;-69
2022/03/29 00:05:19;;;;;;;3.28;2.97;;;;;;;7.72;68.63;99133.28;8209081;28;20079;-69
2022/03/29 00:09:21;;;;;;;4.07;3.60;;;;;;;7.61;68.51;99125.53;8207882;28;20432;-69
2022/03/29 00:13:23;;;;;;;4.53;3.50;;;;;;;7.58;68.69;99135.88;8208241;28;20130;-68
2022/03/29 00:17:24;;;;;;;3.72;3.33;;;;;;;7.49;69.48;99123.75;8209473;28;20059;-69
2022/03/29 00:21:25;;;;;;;4.30;3.53;;;;;;;7.47;69.18;99120.31;8209499;28;20054;-69
2022/03/29 00:25:27;;;;;;;7.10;3.45;;;;;;;7.48;68.91;99114.28;8203461;28;20070;-69
2022/03/29 00:29:28;;;;;;;6.35;3.33;;;;;;;7.43;69.13;99110.84;8204057;28;20082;-69
2022/03/29 00:33:30;;;;;;;5.75;3.47;;;;;;;7.41;69.31;99107.38;8206333;28;20057;-69
2022/03/29 00:37:32;;;;;;;4.63;3.03;;;;;;;7.42;69.12;99101.38;8211313;28;20157;-69
2022/03/29 00:41:33;;;;;;;11.05;4.10;;;;;;;7.40;69.31;99097.91;8210549;28;20225;-69
2022/03/29 00:45:36;;;;;;;5.10;3.67;;;;;;;7.40;69.94;99100.50;8207048;28;20047;-69
2022/03/29 00:49:38;;;;;;;6.25;3.88;;;;;;;7.40;69.83;99090.16;8208437;28;20062;-69
2022/03/29 00:53:39;;;;;;;4.90;4.38;;;;;;;7.35;69.92;99094.44;8212070;28;20822;-69
2022/03/29 00:57:41;;;;;;;5.20;3.38;;;;;;;7.32;69.81;99088.41;8207003;28;20062;-69
2022/03/29 01:01:43;;;;;;;7.47;3.90;;;;;;;7.30;70.19;99077.19;8196496;28;20198;-69
2022/03/29 01:05:45;;;;;;;4.95;3.85;;;;;;;7.28;69.68;99079.78;8204957;28;20109;-69
2022/03/29 01:09:46;;;;;;;6.20;3.63;;;;;;;7.27;69.82;99073.75;8204041;28;20450;-69
2022/03/29 01:13:48;;;;;;;4.38;3.25;;;;;;;7.25;70.11;99075.47;8214383;28;20827;-69
2022/03/29 01:17:50;;;;;;;6.45;3.78;;;;;;;7.25;70.21;99070.31;8204491;28;20127;-69
2022/03/29 01:21:58;;;;;;;3.63;3.28;;;;;;;7.22;69.97;99070.31;8204105;28;20063;-69
2022/03/29 01:26:00;;;;;;;4.75;3.60;;;;;;;7.19;70.09;99066.84;8227554;28;20046;-69
2022/03/29 01:30:02;;;;;;;6.82;3.97;;;;;;;7.16;70.06;99069.41;8202240;28;20057;-70
2022/03/29 01:34:05;;;;;;;6.20;4.15;;;;;;;7.15;69.88;99057.34;8202928;28;20046;-69
2022/03/29 01:38:07;;;;;;;10.45;3.38;;;;;;;7.17;70.38;99048.75;8203565;28;20083;-69
2022/03/29 01:42:08;;;;;;;4.40;3.65;;;;;;;7.14;71.33;99053.91;8206533;28;20060;-70
2022/03/29 01:46:12;;;;;;;7.03;3.40;;;;;;;7.12;70.72;99047.88;8199370;28;20055;-69
2022/03/29 01:50:14;;;;;;;7.22;3.63;;;;;;;7.08;70.69;99040.13;8203019;28;20043;-69
2022/03/29 01:54:16;;;;;;;4.72;3.13;;;;;;;7.04;71.17;99039.25;8214120;28;20086;-70
2022/03/29 01:58:17;;;;;;;7.27;4.30;;;;;;;7.01;70.60;99038.38;8211683;28;20166;-69
2022/03/29 02:02:19;;;;;;;5.18;3.83;;;;;;;6.99;71.22;99033.19;8199282;28;20117;-69
2022/03/29 02:06:21;;;;;;;6.93;4.20;;;;;;;6.98;71.19;99028.88;8214628;28;20047;-69
2022/03/29 02:10:22;;;;;;;4.82;3.80;;;;;;;6.94;71.17;99030.59;8220293;28;20138;-69
2022/03/29 02:14:23;;;;;;;4.88;3.92;;;;;;;6.90;70.93;99030.59;8218380;28;20448;-69
2022/03/29 02:18:25;;;;;;;5.70;3.78;;;;;;;6.87;71.42;99026.28;8220634;28;20354;-69
2022/03/29 02:22:27;;;;;;;4.37;3.97;;;;;;;6.84;71.35;99026.25;8226241;28;20108;-69
2022/03/29 02:26:28;;;;;;;4.35;3.88;;;;;;;6.74;71.62;99021.91;8230242;28;20047;-69
2022/03/29 02:30:32;;;;;;;4.57;4.05;;;;;;;6.71;72.38;99018.44;8222770;28;20149;-69
2022/03/29 02:34:34;;;;;;;8.02;4.07;;;;;;;6.61;72.45;99012.38;8226212;28;20054;-69
2022/03/29 02:38:36;;;;;;;6.15;4.18;;;;;;;6.58;72.79;99004.63;8229136;28;20137;-70
2022/03/29 02:42:55;;;;;;;8.77;5.40;;;;;;;6.56;73.59;99006.34;8225681;28;20138;-69
2022/03/29 02:46:56;;;;;;;7.85;4.43;;;;;;;6.55;73.35;98997.72;8221880;28;20071;-69
2022/03/29 02:50:58;;;;;;;11.35;4.97;;;;;;;6.54;73.26;98992.56;8221998;28;20055;-69
2022/03/29 02:54:59;;;;;;;9.43;4.43;;;;;;;6.53;73.56;98980.53;8229884;28;20046;-69
2022/03/29 02:59:01;;;;;;;5.47;4.25;;;;;;;6.47;73.02;98981.38;8220853;28;20173;-69
2022/03/29 03:03:03;;;;;;;6.28;4.43;;;;;;;6.44;73.17;98976.16;8216819;28;20145;-69
2022/03/29 03:07:05;;;;;;;8.83;4.70;;;;;;;6.42;73.30;98970.16;8221933;28;20073;-68
2022/03/29 03:11:07;;;;;;;6.18;3.75;;;;;;;6.43;73.58;98965.84;8227529;28;20137;-69
2022/03/29 03:15:11;;;;;;;9.48;5.55;;;;;;;6.41;74.23;98964.97;8216957;28;20042;-69
2022/03/29 03:19:13;;;;;;;8.68;5.45;;;;;;;6.38;74.33;98959.81;8213212;28;20059;-69
2022/03/29 03:23:15;;;;;;;12.57;6.40;;;;;;;6.34;74.82;98956.38;8219511;28;20558;-69
2022/03/29 03:27:17;;;;;;;10.13;7.25;;;;;;;6.31;75.08;98956.34;8231107;28;20282;-69
2022/03/29 03:31:19;;;;;;;9.93;5.95;;;;;;;6.18;75.37;98945.09;8229003;28;20058;-69
2022/03/29 03:35:20;;;;;;;10.77;5.72;;;;;;;6.16;75.15;98944.22;8215899;28;20573;-69
2022/03/29 03:39:22;;;;;;;8.30;5.23;;;;;;;6.18;75.00;98944.22;8216455;28;20054;-69
2022/03/29 03:43:23;;;;;;;5.93;4.60;;;;;;;6.18;75.03;98942.53;8216009;28;20061;-69
2022/03/29 03:47:26;;;;;;;5.30;4.27;;;;;;;6.16;74.55;98933.06;8218168;28;20063;-69
2022/03/29 03:51:27;;;;;;;7.18;5.43;;;;;;;6.12;74.51;98929.59;8224758;28;21411;-69
2022/03/29 03:55:29;;;;;;;9.30;5.27;;;;;;;6.14;74.39;98929.63;8232261;28;20043;-69
2022/03/29 03:59:31;;;;;;;11.23;5.22;;;;;;;6.11;74.76;98922.72;8216492;28;20149;-69
2022/03/29 04:03:33;;;;;;;8.85;4.82;;;;;;;6.11;75.22;98919.28;8216249;28;20549;-69
2022/03/29 04:07:34;;;;;;;5.57;4.80;;;;;;;6.06;75.18;98914.09;8218377;28;20067;-69
2022/03/29 04:11:36;;;;;;;7.17;5.30;;;;;;;6.00;75.40;98914.91;8211313;28;20061;-69
2022/03/29 04:15:37;;;;;;;8.43;5.07;;;;;;;5.97;75.28;98909.75;8211754;28;20665;-69
2022/03/29 04:19:39;;;;;;;8.37;5.00;;;;;;;5.92;75.81;98903.69;8218958;28;20050;-69
2022/03/29 04:23:40;;;;;;;10.17;4.80;;;;;;;5.92;75.73;98900.25;8218712;28;20047;-69
2022/03/29 04:27:42;;;;;;;9.57;4.87;;;;;;;5.93;75.23;98902.88;8216924;28;20086;-69
2022/03/29 04:31:43;;;;;;;6.77;4.47;;;;;;;5.88;75.37;98898.47;8216676;28;20062;-69
2022/03/29 04:35:45;;;;;;;11.17;5.40;;;;;;;5.79;75.72;98904.44;8220366;28;20171;-69
2022/03/29 04:39:46;;;;;;;8.67;5.60;;;;;;;5.75;75.80;98901.00;8209611;28;20714;-69
2022/03/29 04:43:48;;;;;;;9.30;5.60;;;;;;;5.75;75.93;98903.56;8216429;28;20150;-70
2022/03/29 04:47:49;;;;;;;6.03;4.50;;;;;;;5.73;75.46;98904.38;8210093;28;20193;-69
2022/03/29 04:51:51;;;;;;;8.37;4.50;;;;;;;5.74;75.69;98901.84;8218294;28;20050;-69
2022/03/29 04:55:53;;;;;;;7.37;4.60;;;;;;;5.78;75.03;98895.00;8229769;28;20133;-69
2022/03/29 04:59:54;;;;;;;7.80;4.50;;;;;;;5.78;75.21;98891.56;8208948;28;20294;-69
2022/03/29 05:03:55;;;;;;;5.73;4.33;;;;;;;5.74;74.92;98886.41;8202854;28;20058;-69
2022/03/29 05:07:57;;;;;;;5.20;3.97;;;;;;;5.70;75.55;98884.63;8206327;28;20060;-69
2022/03/29 05:11:59;;;;;;;5.30;4.00;;;;;;;5.67;75.28;98882.03;8206194;28;20150;-70
2022/03/29 05:16:01;;;;;;;5.97;4.00;;;;;;;5.68;75.37;98880.31;8204385;28;20086;-69
2022/03/29 05:20:04;;;;;;;7.60;4.45;;;;;;;5.66;75.05;98884.59;8207350;28;20457;-70
2022/03/29 05:24:06;;;;;;;5.80;4.40;;;;;;;5.58;75.44;98881.13;8223129;28;20162;-70
2022/03/29 05:28:09;;;;;;;9.20;4.50;;;;;;;5.58;75.90;98886.28;8207751;28;20142;-70
2022/03/29 05:32:10;;;;;;;6.60;5.20;;;;;;;5.53;76.06;98875.91;8201701;28;20065;-69
2022/03/29 05:36:13;;;;;;;6.77;4.60;;;;;;;5.53;76.46;98875.91;8208130;28;20145;-70
2022/03/29 05:40:14;;;;;;;;;;;;;;;5.61;77.05;98886.28;8205206;28;20150;-70
2022/03/29 05:44:16;;;;;;;6.20;4.40;;;;;;;5.62;76.79;98882.88;8206777;28;19926;-70
2022/03/29 05:52:37;;;;;;;7.33;4.30;;;;;;;5.65;76.94;98876.03;8199506;28;20069;-70
2022/03/29 05:56:38;;;;;;;5.10;4.43;;;;;;;5.69;77.06;98874.31;8198287;28;20498;-70
2022/03/29 06:00:40;;;;;;;5.47;4.60;;;;;;;5.75;76.86;98870.09;8197436;28;20615;-70
2022/03/29 06:04:42;;;;;;;7.27;4.60;;;;;;;5.78;76.79;98879.53;8201941;28;20117;-69
2022/03/29 06:08:43;;;;;;;6.60;4.95;;;;;;;5.76;76.30;98889.84;8201530;28;20169;-70
2022/03/29 06:12:46;;;;;;;7.43;5.50;;;;;;;5.76;76.07;98889.84;8202364;28;20852;-70
2022/03/29 06:16:48;;;;;;;8.67;5.70;;;;;;;5.90;75.66;98884.78;8208296;28;20067;-70
2022/03/29 06:20:50;;;;;;;9.17;5.63;;;;;;;6.10;76.21;98881.47;8211734;28;20047;-70
2022/03/29 06:24:51;;;;;;;8.18;5.30;;;;;;;6.22;75.73;98876.38;8212028;28;20189;-70
2022/03/29 06:28:53;;;;;;;8.13;4.87;;;;;;;6.32;75.65;98879.00;8211256;28;20065;-70
2022/03/29 06:32:55;;;;;;;9.07;5.80;;;;;;;6.47;75.42;98877.34;8210157;28;20054;-70
2022/03/29 06:36:56;;;;;;;11.10;5.43;;;;;;;6.60;75.56;98879.09;8213658;28;20055;-70
2022/03/29 06:40:59;;;;;;;6.93;4.60;;;;;;;6.74;75.34;98872.25;8211862;28;20054;-70
2022/03/29 06:45:00;;;;;;;12.70;5.65;;;;;;;6.88;74.52;98862.84;8212780;28;20461;-70
2022/03/29 06:49:03;;;;;;;11.45;5.13;;;;;;;6.98;73.81;98861.97;8211366;28;20059;-70
2022/03/29 06:53:06;;;;;;;10.30;4.85;;;;;;;7.08;73.38;98865.44;8206828;28;20054;-70
2022/03/29 06:57:09;;;;;;;14.48;5.90;;;;;;;7.22;72.71;98862.88;8208794;28;20436;-70
2022/03/29 07:01:11;;;;;;;12.88;5.78;;;;;;;7.34;72.55;98857.69;8210710;28;20462;-70
2022/03/29 07:05:14;;;;;;;13.57;5.70;;;;;;;7.51;71.12;98852.53;8208817;28;20058;-70
2022/03/29 07:13:46;;;;;;;11.07;5.93;;;;;;;7.93;70.17;98853.34;8209331;28;20659;-70
2022/03/29 07:17:48;;;;;;;17.20;7.25;;;;;;;8.13;69.58;98852.41;8208314;28;20109;-69
2022/03/29 07:21:50;;;;;;;15.70;6.75;;;;;;;8.36;69.03;98844.59;8206395;28;20888;-70
2022/03/29 07:25:52;;;;;;;16.17;6.70;;;;;;;8.67;68.16;98849.63;8212230;28;20430;-70
2022/03/29 07:29:53;;;;;;;14.87;7.20;;;;;;;8.98;67.20;98851.16;8213030;28;20057;-70
2022/03/29 07:33:55;;;;;;;10.68;6.70;;;;;;;9.26;66.32;98851.78;8207727;28;20043;-70
2022/03/29 07:37:57;;;;;;;24.13;7.13;;;;;;;9.55;66.27;98848.97;8211182;28;20051;-70
2022/03/29 07:41:58;;;;;;;16.45;7.18;;;;;;;9.73;65.64;98845.34;8211815;28;20054;-70
2022/03/29 07:46:00;;;;;;;14.35;7.85;;;;;;;9.92;64.29;98838.25;8205303;28;20055;-71
2022/03/29 07:50:06;;;;;;;15.68;7.95;;;;;;;10.05;63.55;98839.78;8208298;28;20046;-70
2022/03/29 07:54:27;;;;;;;14.75;6.78;;;;;;;10.35;63.35;98832.56;8208206;28;20047;-71
2022/03/29 07:58:29;;;;;;;13.73;8.43;;;;;;;10.62;63.74;98828.78;8208146;28;20062;-70
2022/03/29 08:02:30;;;;;;;12.60;8.37;;;;;;;10.91;62.74;98831.78;8203268;28;20147;-70
2022/03/29 08:06:32;;;;;;;21.80;9.13;;;;;;;11.13;61.57;98824.53;8211466;28;20603;-70
2022/03/29 08:10:34;;;;;;;19.67;9.03;;;;;;;11.45;61.07;98816.22;8205031;28;20059;-70
2022/03/29 08:14:35;;;;;;;22.30;9.53;;;;;;;11.73;60.91;98811.38;8206937;28;20055;-70
2022/03/29 08:18:38;;;;;;;21.13;9.85;;;;;;;12.05;59.68;98811.66;8203860;28;20059;-71
2022/03/29 08:22:44;;;;;;;18.33;10.02;;;;;;;12.34;58.85;98811.06;8207584;28;20613;-70
2022/03/29 08:26:48;;;;;;;25.10;10.93;;;;;;;12.63;57.78;98814.81;8205912;28;20042;-70
2022/03/29 08:30:49;;;;;;;19.48;10.75;;;;;;;12.95;56.24;98811.47;8203080;28;20145;-70
2022/03/29 08:34:51;;;;;;;20.10;11.73;;;;;;;13.22;55.55;98807.38;8203041;28;20054;-71
2022/03/29 08:38:52;;;;;;;23.25;13.68;;;;;;;13.45;54.28;98810.25;8206617;28;20055;-70
2022/03/29 08:42:55;;;;;;;25.23;12.45;;;;;;;13.60;53.90;98809.88;8205203;28;20066;-70
2022/03/29 08:46:57;;;;;;;25.23;12.93;;;;;;;13.60;53.40;98807.25;8202463;28;20065;-70
2022/03/29 08:51:00;;;;;;;20.08;12.07;;;;;;;13.54;52.16;98815.25;8207480;28;20055;-70
2022/03/29 08:55:23;;;;;;;19.95;11.73;;;;;;;13.51;51.82;98806.66;8206555;28;20113;-70
2022/03/29 08:59:26;;;;;;;21.65;12.38;;;;;;;13.53;53.48;98799.66;8204646;28;20050;-70
2022/03/29 09:03:27;;;;;;;14.00;9.15;;;;;;;13.61;49.39;98798.53;8207157;28;20174;-70
2022/03/29 09:07:46;;;;;;;16.65;9.65;;;;;;;13.72;48.91;98790.44;8210358;28;20047;-70
2022/03/29 09:11:48;;;;;;;18.30;9.77;;;;;;;13.88;49.58;98785.66;8212095;28;20066;-71
2022/03/29 09:15:51;;;;;;;18.13;10.80;;;;;;;13.94;50.27;98785.50;8225074;28;20090;-70
2022/03/29 09:19:55;;;;;;;14.73;9.65;;;;;;;14.06;49.56;98779.06;8216241;28;20138;-70
2022/03/29 09:24:23;;;;;;;15.80;8.73;;;;;;;14.20;46.92;98777.78;8219293;28;20457;-70
2022/03/29 09:28:32;;;;;;;22.35;9.05;;;;;;;14.41;47.55;98775.44;8214743;28;20058;-70
2022/03/29 09:32:34;;;;;;;11.98;7.90;;;;;;;14.72;46.66;98770.16;8219017;28;20468;-69
2022/03/29 09:36:48;;;;;;;15.93;7.50;;;;;;;14.97;44.94;98783.31;8215498;28;20141;-70
2022/03/29 09:40:50;;;;;;;14.45;7.43;;;;;;;15.19;43.90;98770.41;8236003;28;20070;-70
2022/03/29 09:44:53;;;;;;;11.38;7.20;;;;;;;15.26;43.01;98762.31;8220207;28;20181;-70
2022/03/29 09:49:03;;;;;;;13.85;8.20;;;;;;;15.36;42.02;98755.84;8228594;28;20479;-69
2022/03/29 09:53:04;;;;;;;14.20;7.53;;;;;;;15.43;42.56;98749.50;8208603;28;20055;-70
2022/03/29 09:57:06;;;;;;;15.53;7.37;;;;;;;15.52;42.31;98745.72;8217090;28;20109;-70
2022/03/29 10:01:24;;;;;;;15.80;7.27;;;;;;;15.74;43.27;98739.75;8215496;28;20327;-70
2022/03/29 10:05:26;;;;;;;9.63;7.30;;;;;;;15.82;42.35;98727.28;8215494;28;20082;-70
2022/03/29 10:09:30;;;;;;;;;;;;;;;15.90;42.96;98717.34;8217516;28;20062;-70
2022/03/29 10:13:33;;;;;;;10.95;6.75;;;;;;;16.00;42.26;98710.88;8212308;28;19981;-70
2022/03/29 10:17:35;;;;;;;;;;;;;;;16.02;42.37;98704.69;8205759;28;20097;-70
2022/03/29 10:21:38;;;;;;;11.45;6.30;;;;;;;16.14;41.47;98710.34;8208486;28;19996;-70
2022/03/29 10:25:41;;;;;;;12.00;7.35;;;;;;;16.24;41.73;98704.72;8209600;28;20053;-70
2022/03/29 10:29:43;;;;;;;13.00;7.10;;;;;;;16.28;41.00;98693.19;8213912;28;20070;-70
2022/03/29 10:33:44;;;;;;;17.38;8.77;;;;;;;16.44;40.08;98696.06;8214224;28;20763;-70
2022/03/29 10:37:55;;;;;;;13.83;7.67;;;;;;;16.53;39.88;98687.88;8216641;28;20061;-70
2022/03/29 10:41:57;;;;;;;17.00;8.05;;;;;;;16.80;39.44;98685.06;8208765;28;20153;-70
2022/03/29 10:45:59;;;;;;;13.85;8.40;;;;;;;17.03;39.82;98682.34;8208053;28;20070;-70
2022/03/29 10:50:01;;;;;;;20.92;9.82;;;;;;;17.03;37.24;98665.75;8215228;28;20435;-70
2022/03/29 10:54:42;;;;;;;21.40;9.48;;;;;;;17.13;39.35;98674.94;8217452;28;20046;-70
2022/03/29 10:59:06;;;;;;;22.40;9.68;;;;;;;17.25;39.71;98657.84;8211202;28;20069;-69
2022/03/29 11:03:22;;;;;;;17.27;9.27;;;;;;;17.35;38.72;98643.38;8208417;28;20055;-69
2022/03/29 11:07:24;;;;;;;18.35;8.57;;;;;;;17.67;38.27;98634.94;8222111;28;20727;-69
2022/03/29 11:11:36;;;;;;;12.18;8.27;;;;;;;17.76;36.83;98637.16;8214490;28;20065;-69
2022/03/29 11:15:38;;;;;;;13.25;9.32;;;;;;;17.90;37.33;98630.41;8210819;28;20138;-69
2022/03/29 11:19:50;;;;;;;12.00;8.23;;;;;;;18.00;37.08;98632.56;8213861;28;20055;-69
2022/03/29 11:23:52;;;;;;;12.90;8.45;;;;;;;17.92;35.24;98620.69;8208814;28;20062;-69
2022/03/29 11:28:03;;;;;;;9.70;7.30;;;;;;;17.57;35.79;98617.03;8210582;28;20051;-69
2022/03/29 11:32:13;;;;;;;11.27;7.35;;;;;;;17.55;36.61;98613.63;8214158;28;20059;-69
2022/03/29 11:36:16;;;;;;;17.20;8.35;;;;;;;17.70;36.01;98611.19;8218667;28;20134;-69
2022/03/29 11:40:19;;;;;;;13.85;9.10;;;;;;;17.79;36.43;98602.91;8212708;28;20050;-69
2022/03/29 11:44:23;;;;;;;13.05;7.47;;;;;;;17.88;36.43;98598.13;8214222;28;20130;-69
2022/03/29 11:48:26;;;;;;;11.75;7.22;;;;;;;17.95;36.41;98589.03;8211493;28;20090;-69
2022/03/29 11:52:35;;;;;;;11.90;8.02;;;;;;;17.86;36.34;98586.84;8216790;28;20745;-69
2022/03/29 11:56:38;;;;;;;14.18;6.82;;;;;;;17.82;36.05;98578.25;8213310;28;20418;-69
2022/03/29 12:00:39;;;;;;;10.65;7.43;;;;;;;17.75;35.82;98580.31;8209863;28;20105;-69
2022/03/29 12:04:42;;;;;;;14.07;6.67;;;;;;;17.80;35.83;98578.34;8212441;28;20043;-69
2022/03/29 12:08:51;;;;;;;11.75;7.78;;;;;;;17.81;35.86;98571.31;8209735;28;20291;-69
2022/03/29 12:12:52;;;;;;;11.20;7.20;;;;;;;17.91;35.41;98562.06;8216239;28;20171;-69
2022/03/29 12:17:04;;;;;;;14.43;7.35;;;;;;;18.04;35.44;98554.44;8210828;28;20159;-69
2022/03/29 12:21:11;;;;;;;12.55;7.63;;;;;;;18.00;33.20;98552.91;8212393;28;20051;-69
2022/03/29 12:25:12;;;;;;;14.73;7.43;;;;;;;18.16;35.44;98547.75;8212720;28;20043;-69
2022/03/29 12:29:24;;;;;;;12.80;7.60;;;;;;;18.39;34.48;98534.34;8210650;28;20157;-69
2022/03/29 12:33:25;;;;;;;9.02;6.97;;;;;;;18.57;35.18;98533.41;8209088;28;20975;-69
2022/03/29 12:37:27;;;;;;;10.90;6.80;;;;;;;18.72;35.64;98529.19;8215373;28;20065;-69
2022/03/29 12:41:46;;;;;;;12.73;7.32;;;;;;;18.90;34.91;98519.50;8208800;28;20177;-69
2022/03/29 12:45:48;;;;;;;8.52;6.93;;;;;;;18.99;33.59;98517.22;8201905;28;20142;-69
2022/03/29 12:49:51;;;;;;;17.77;7.32;;;;;;;18.86;33.42;98513.56;8216063;28;20482;-69
2022/03/29 12:53:58;;;;;;;13.50;6.97;;;;;;;18.68;33.32;98511.88;8210254;28;20085;-69
2022/03/29 12:58:03;;;;;;;12.25;7.68;;;;;;;18.53;33.22;98502.94;8203807;28;20050;-69
2022/03/29 13:02:16;;;;;;;11.35;7.15;;;;;;;18.70;34.80;98502.97;8199534;28;20067;-69
2022/03/29 13:06:18;;;;;;;10.02;6.38;;;;;;;18.76;34.00;98493.06;8211047;28;20050;-70
2022/03/29 13:10:33;;;;;;;13.15;6.90;;;;;;;18.67;32.96;98486.47;8213773;28;20141;-70
2022/03/29 13:14:36;;;;;;;13.02;7.55;;;;;;;18.73;32.92;98485.34;8204922;28;20086;-69
2022/03/29 13:18:45;;;;;;;8.25;6.18;;;;;;;18.62;33.82;98478.81;8207686;28;20147;-69
2022/03/29 13:22:55;;;;;;;11.88;6.85;;;;;;;18.62;34.06;98472.69;8223936;28;20850;-70
2022/03/29 13:26:56;;;;;;;7.30;6.55;;;;;;;18.55;34.22;98464.28;8216151;28;20459;-70
2022/03/29 13:30:58;;;;;;;10.10;6.30;;;;;;;18.57;34.08;98469.47;8204107;28;20090;-69
2022/03/29 13:34:59;;;;;;;13.15;6.35;;;;;;;18.60;34.45;98458.78;8212693;28;20384;-70
2022/03/29 13:39:01;;;;;;;9.97;6.13;;;;;;;18.62;34.51;98451.66;8215057;28;20058;-70
2022/03/29 13:43:03;;;;;;;6.40;5.78;;;;;;;18.53;32.89;98455.63;8211126;28;20797;-70
2022/03/29 13:47:05;;;;;;;8.30;5.70;;;;;;;18.47;32.53;98452.44;8211268;28;20086;-72
2022/03/29 13:51:11;;;;;;;11.10;6.28;;;;;;;18.51;32.93;98449.59;8227618;28;20133;-72
2022/03/29 13:55:12;;;;;;;8.30;5.85;;;;;;;18.57;32.68;98441.38;8225162;28;20561;-71
2022/03/29 13:59:13;;;;;;;10.80;6.13;;;;;;;18.61;32.65;98440.28;8214215;28;21216;-71
2022/03/29 14:03:15;;;;;;;9.40;6.07;;;;;;;18.70;33.28;98437.22;8207688;28;20299;-71
2022/03/29 14:07:17;;;;;;;11.15;6.10;;;;;;;18.69;32.17;98434.69;8226799;28;20696;-71
2022/03/29 14:11:18;;;;;;;7.80;5.85;;;;;;;18.71;33.39;98432.81;8219037;28;20506;-71
2022/03/29 14:15:20;;;;;;;7.77;5.37;;;;;;;18.75;32.74;98429.09;8215534;28;20162;-71
2022/03/29 14:19:22;;;;;;;12.07;5.20;;;;;;;18.76;33.30;98425.53;8219657;28;20297;-71
2022/03/29 14:23:29;;;;;;;8.00;5.25;;;;;;;18.76;32.93;98425.53;8215622;28;20055;-71
2022/03/29 14:27:31;;;;;;;;;;;;;;;18.74;33.15;98413.38;8220681;28;20061;-70
2022/03/29 14:31:32;;;;;;;14.50;4.63;;;;;;;18.70;31.72;98410.09;8213236;28;19937;-70
2022/03/29 14:35:35;;;;;;;9.70;4.72;;;;;;;18.70;31.69;98394.31;8217232;28;20381;-70
2022/03/29 14:39:37;;;;;;;12.13;5.00;;;;;;;18.66;31.20;98395.38;8217396;28;20093;-71
2022/03/29 14:43:38;;;;;;;11.75;5.35;;;;;;;18.70;31.27;98383.78;8216114;28;20141;-71
2022/03/29 14:47:40;;;;;;;13.77;4.90;;;;;;;18.67;31.14;98389.19;8209874;28;20066;-70
2022/03/29 14:51:41;;;;;;;10.55;5.63;;;;;;;18.67;31.47;98376.03;8233768;28;20061;-70
2022/03/29 14:55:43;;;;;;;9.13;4.93;;;;;;;18.60;30.69;98380.75;8214536;28;20165;-70
2022/03/29 14:59:44;;;;;;;22.88;4.63;;;;;;;18.59;31.53;98368.53;8213090;28;20073;-70
2022/03/29 15:03:46;;;;;;;10.52;4.55;;;;;;;18.60;32.40;98372.00;8203628;28;20750;-71
2022/03/29 15:07:47;;;;;;;18.67;4.85;;;;;;;18.49;31.64;98366.47;8205697;28;20055;-70
2022/03/29 15:11:49;;;;;;;8.50;4.15;;;;;;;18.45;31.86;98362.31;8209901;28;20086;-70
2022/03/29 15:15:51;;;;;;;15.02;4.75;;;;;;;18.41;31.45;98359.00;8203955;28;20150;-72
2022/03/29 15:19:52;;;;;;;10.75;4.22;;;;;;;18.33;33.26;98346.25;8203301;28;20675;-70
2022/03/29 15:23:54;;;;;;;11.52;4.35;;;;;;;18.28;32.69;98353.53;8224777;28;20054;-70
2022/03/29 15:27:55;;;;;;;11.77;3.37;;;;;;;18.21;32.93;98343.41;8208814;28;20086;-71
2022/03/29 15:31:57;;;;;;;5.30;3.03;;;;;;;18.08;33.18;98340.56;8207182;28;20097;-71
2022/03/29 15:35:59;;;;;;;10.77;3.10;;;;;;;17.96;33.97;98336.81;8206922;28;20050;-70
2022/03/29 15:40:02;;;;;;;13.48;3.08;;;;;;;17.71;34.51;98337.19;8212586;28;20062;-70
2022/03/29 15:44:03;;;;;;;10.10;3.33;;;;;;;17.58;34.58;98335.22;8208523;28;20153;-72
2022/03/29 15:48:05;;;;;;;10.77;2.80;;;;;;;17.54;35.07;98331.91;8219689;28;20086;-70
2022/03/29 15:52:08;;;;;;;8.82;3.10;;;;;;;17.50;35.20;98323.34;8226989;28;20054;-71
2022/03/29 15:56:09;;;;;;;6.50;2.92;;;;;;;17.50;35.40;98322.47;8203124;28;20106;-70
2022/03/29 16:00:11;;;;;;;13.53;3.33;;;;;;;17.47;34.74;98314.75;8203624;28;20057;-70
2022/03/29 16:04:13;;;;;;;8.73;2.42;;;;;;;17.47;35.54;98301.66;8214380;28;20407;-68
2022/03/29 16:08:16;;;;;;;10.20;2.70;;;;;;;17.33;34.46;98302.31;8216854;28;20675;-70
2022/03/29 16:12:19;;;;;;;9.32;3.20;;;;;;;17.24;34.69;98294.91;8215875;28;20844;-70
2022/03/29 16:16:20;;;;;;;10.57;3.25;;;;;;;17.20;36.31;98290.72;8210658;28;20093;-69
2022/03/29 16:20:22;;;;;;;9.63;2.97;;;;;;;17.13;35.59;98284.94;8206322;28;20734;-70
2022/03/29 16:24:23;;;;;;;14.20;2.83;;;;;;;17.12;35.72;98278.00;8213841;28;20771;-70
2022/03/29 16:28:45;;;;;;;9.73;2.67;;;;;;;17.14;35.75;98270.03;8215516;28;20043;-70
2022/03/29 16:32:46;;;;;;;8.40;2.60;;;;;;;17.14;37.19;98278.75;8200506;28;20071;-70
2022/03/29 16:36:48;;;;;;;7.13;2.67;;;;;;;17.14;37.02;98268.25;8207680;28;20058;-70
2022/03/29 16:40:49;;;;;;;6.40;2.70;;;;;;;17.15;36.58;98258.63;8210277;28;20065;-70
2022/03/29 16:44:51;;;;;;;7.47;2.37;;;;;;;17.11;39.05;98257.09;8200776;28;20051;-70
2022/03/29 16:48:52;;;;;;;14.30;2.85;;;;;;;17.05;39.33;98246.88;8205387;28;20058;-70
2022/03/29 16:52:55;;;;;;;6.00;2.60;;;;;;;16.94;38.18;98250.03;8209626;28;20055;-70
2022/03/29 16:56:58;;;;;;;8.40;2.38;;;;;;;16.86;37.86;98247.75;8209365;28;20064;-70
2022/03/29 17:01:00;;;;;;;14.45;3.10;;;;;;;16.76;38.01;98245.66;8207112;28;20503;-70
2022/03/29 17:05:03;;;;;;;10.65;2.58;;;;;;;16.66;39.05;98250.44;8210736;28;20106;-70
2022/03/29 17:09:05;;;;;;;8.63;2.25;;;;;;;16.55;40.64;98247.50;8206466;28;21120;-70
2022/03/29 17:13:07;;;;;;;;;;;;;;;16.46;42.33;98253.16;8230405;28;20047;-71
2022/03/29 17:17:09;;;;;;;6.45;2.35;;;;;;;16.36;43.03;98259.75;8210011;28;19926;-71
2022/03/29 17:21:11;;;;;;;5.27;2.37;;;;;;;16.24;43.11;98256.78;8211017;28;20065;-71
2022/03/29 17:25:13;;;;;;;9.77;2.42;;;;;;;16.15;43.56;98258.94;8208749;28;20538;-71
2022/03/29 17:29:15;;;;;;;;;;;;;;;16.06;43.18;98259.38;8226239;28;20046;-71
2022/03/29 17:33:16;;;;;;;6.15;2.00;;;;;;;15.93;43.43;98248.59;8195157;28;20044;-71
2022/03/29 17:37:19;;;;;;;10.38;2.67;;;;;;;15.82;43.08;98256.94;8209493;28;20511;-71
2022/03/29 17:41:20;;;;;;;9.07;2.65;;;;;;;15.68;44.81;98254.06;8213084;28;20448;-71
2022/03/29 17:45:22;;;;;;;5.18;2.50;;;;;;;15.52;44.52;98256.44;8212998;28;20058;-71
2022/03/29 17:49:24;;;;;;;6.80;2.22;;;;;;;15.37;45.12;98263.16;8218046;28;20066;-71
2022/03/29 17:53:26;;;;;;;9.45;2.58;;;;;;;15.25;45.66;98254.97;8229505;28;20059;-71
2022/03/29 17:57:27;;;;;;;9.55;2.45;;;;;;;15.12;45.94;98252.03;8231826;28;20053;-71
2022/03/29 18:01:29;;;;;;;5.70;2.67;;;;;;;15.05;45.79;98250.56;8210116;28;20077;-71
2022/03/29 18:05:36;;;;;;;8.13;2.40;;;;;;;14.91;46.81;98253.75;8210742;28;20082;-71
2022/03/29 18:09:37;;;;;;;4.90;1.95;;;;;;;14.80;46.65;98256.78;8210704;28;20065;-70
2022/03/29 18:13:39;;;;;;;6.70;2.63;;;;;;;14.64;47.62;98245.22;8213922;28;20059;-71
2022/03/29 18:17:42;;;;;;;7.40;2.47;;;;;;;14.60;45.63;98245.41;8225758;28;20145;-71
2022/03/29 18:21:44;;;;;;;9.30;2.25;;;;;;;14.55;46.03;98250.84;8215102;28;20303;-70
2022/03/29 18:25:46;;;;;;;15.73;2.42;;;;;;;14.52;46.42;98250.91;8213238;28;20061;-71
2022/03/29 18:29:48;;;;;;;18.15;2.50;;;;;;;14.44;48.40;98245.16;8225150;28;20046;-71
2022/03/29 18:33:49;;;;;;;6.18;1.95;;;;;;;14.32;49.18;98254.25;8205105;28;20054;-70
2022/03/29 18:37:52;;;;;;;12.13;2.53;;;;;;;14.18;46.35;98257.41;8210396;28;20422;-71
2022/03/29 18:41:54;;;;;;;10.00;3.05;;;;;;;14.22;45.58;98255.53;8202543;28;20526;-70
2022/03/29 18:45:56;;;;;;;7.03;2.13;;;;;;;14.22;46.70;98258.16;8211267;28;20078;-71
2022/03/29 18:50:17;;;;;;;8.20;2.67;;;;;;;14.16;50.26;98259.22;8213024;28;20050;-71
2022/03/29 18:54:20;;;;;;;12.95;2.65;;;;;;;14.02;51.85;98269.31;8212833;28;20086;-70
2022/03/29 18:58:22;;;;;;;5.80;2.40;;;;;;;13.87;49.92;98265.50;8214361;28;21567;-70
2022/03/29 19:02:23;;;;;;;6.20;2.88;;;;;;;13.87;48.57;98262.91;8207499;28;20062;-71
2022/03/29 19:06:25;;;;;;;6.55;2.65;;;;;;;13.93;47.60;98261.81;8230735;28;20042;-71
2022/03/29 19:10:28;;;;;;;7.07;3.37;;;;;;;13.95;48.41;98256.53;8215827;28;20531;-70
2022/03/29 19:14:29;;;;;;;9.07;3.42;;;;;;;13.93;48.37;98258.34;8217979;28;20400;-70